sensor_id;sensor_type;location;lat;lon;timestamp;P1;durP1;ratioP1;P2;durP2;ratioP2
595;SDS011;19946;49.306;11.350;2023-12-20T00:05:40;0.40;;;0.40;;
595;SDS011;19946;49.306;11.350;2023-12-20T00:09:16;0.20;;;0.20;;
595;SDS011;19946;49.306;11.350;2023-12-20T00:13:27;0.40;;;0.40;;
595;SDS011;19946;49.306;11.350;2023-12-20T00:16:28;0.20;;;0.20;;
595;SDS011;19946;49.306;11.350;2023-12-20T00:19:40;0.40;;;0.40;;
595;SDS011;19946;49.306;11.350;2023-12-20T00:22:48;0.13;;;0.13;;
595;SDS011;19946;49.306;11.350;2023-12-20T00:26:12;0.20;;;0.20;;
595;SDS011;19946;49.306;11.350;2023-12-20T00:29:24;0.10;;;0.10;;
595;SDS011;19946;49.306;11.350;2023-12-20T00:32:57;0.20;;;0.20;;
595;SDS011;19946;49.306;11.350;2023-12-20T00:36:11;0.20;;;0.20;;
595;SDS011;19946;49.306;11.350;2023-12-20T00:39:11;0.20;;;0.20;;
595;SDS011;19946;49.306;11.350;2023-12-20T00:42:47;0.30;;;0.30;;
595;SDS011;19946;49.306;11.350;2023-12-20T00:45:48;0.40;;;0.40;;
595;SDS011;19946;49.306;11.350;2023-12-20T00:48:48;0.50;;;0.50;;
595;SDS011;19946;49.306;11.350;2023-12-20T00:51:48;0.30;;;0.30;;
595;SDS011;19946;49.306;11.350;2023-12-20T00:55:16;0.50;;;0.50;;
595;SDS011;19946;49.306;11.350;2023-12-20T00:58:16;0.40;;;0.40;;
595;SDS011;19946;49.306;11.350;2023-12-20T01:01:17;0.50;;;0.50;;
595;SDS011;19946;49.306;11.350;2023-12-20T01:04:26;0.20;;;0.20;;
595;SDS011;19946;49.306;11.350;2023-12-20T01:07:37;0.30;;;0.30;;
595;SDS011;19946;49.306;11.350;2023-12-20T01:34:31;1.53;;;0.60;;
595;SDS011;19946;49.306;11.350;2023-12-20T01:38:32;0.20;;;0.20;;
595;SDS011;19946;49.306;11.350;2023-12-20T01:41:32;0.20;;;0.20;;
595;SDS011;19946;49.306;11.350;2023-12-20T01:44:32;0.33;;;0.33;;
595;SDS011;19946;49.306;11.350;2023-12-20T01:47:33;0.40;;;0.40;;
595;SDS011;19946;49.306;11.350;2023-12-20T01:50:33;0.60;;;0.60;;
595;SDS011;19946;49.306;11.350;2023-12-20T01:53:36;0.60;;;0.60;;
595;SDS011;19946;49.306;11.350;2023-12-20T01:57:43;0.30;;;0.30;;
595;SDS011;19946;49.306;11.350;2023-12-20T02:00:45;0.33;;;0.33;;
595;SDS011;19946;49.306;11.350;2023-12-20T02:24:00;0.17;;;0.17;;
595;SDS011;19946;49.306;11.350;2023-12-20T02:27:01;0.30;;;0.30;;
595;SDS011;19946;49.306;11.350;2023-12-20T02:30:01;0.20;;;0.20;;
595;SDS011;19946;49.306;11.350;2023-12-20T02:36:47;0.10;;;0.10;;
595;SDS011;19946;49.306;11.350;2023-12-20T02:39:48;0.20;;;0.20;;
595;SDS011;19946;49.306;11.350;2023-12-20T02:42:49;0.30;;;0.30;;
595;SDS011;19946;49.306;11.350;2023-12-20T02:45:49;0.30;;;0.30;;
595;SDS011;19946;49.306;11.350;2023-12-20T02:48:50;0.40;;;0.40;;
595;SDS011;19946;49.306;11.350;2023-12-20T02:51:50;0.30;;;0.30;;
595;SDS011;19946;49.306;11.350;2023-12-20T02:54:50;0.40;;;0.40;;
595;SDS011;19946;49.306;11.350;2023-12-20T02:57:51;0.30;;;0.30;;
595;SDS011;19946;49.306;11.350;2023-12-20T03:00:51;0.40;;;0.40;;
595;SDS011;19946;49.306;11.350;2023-12-20T03:03:52;0.40;;;0.40;;
595;SDS011;19946;49.306;11.350;2023-12-20T03:06:52;0.70;;;0.70;;
595;SDS011;19946;49.306;11.350;2023-12-20T03:09:52;0.50;;;0.50;;
595;SDS011;19946;49.306;11.350;2023-12-20T03:12:53;0.50;;;0.50;;
595;SDS011;19946;49.306;11.350;2023-12-20T03:15:53;0.60;;;0.60;;
595;SDS011;19946;49.306;11.350;2023-12-20T03:18:53;0.40;;;0.40;;
595;SDS011;19946;49.306;11.350;2023-12-20T03:21:53;0.40;;;0.40;;
595;SDS011;19946;49.306;11.350;2023-12-20T03:24:54;0.40;;;0.40;;
595;SDS011;19946;49.306;11.350;2023-12-20T03:28:22;0.30;;;0.30;;
595;SDS011;19946;49.306;11.350;2023-12-20T03:31:40;0.40;;;0.40;;
595;SDS011;19946;49.306;11.350;2023-12-20T03:34:41;0.60;;;0.60;;
595;SDS011;19946;49.306;11.350;2023-12-20T03:37:41;0.60;;;0.60;;
595;SDS011;19946;49.306;11.350;2023-12-20T03:40:41;0.57;;;0.57;;
595;SDS011;19946;49.306;11.350;2023-12-20T03:43:42;0.60;;;0.60;;
595;SDS011;19946;49.306;11.350;2023-12-20T03:46:42;0.67;;;0.67;;
595;SDS011;19946;49.306;11.350;2023-12-20T03:49:42;0.50;;;0.50;;
595;SDS011;19946;49.306;11.350;2023-12-20T03:52:43;0.50;;;0.50;;
595;SDS011;19946;49.306;11.350;2023-12-20T03:55:43;0.50;;;0.50;;
595;SDS011;19946;49.306;11.350;2023-12-20T03:58:44;0.90;;;0.90;;
595;SDS011;19946;49.306;11.350;2023-12-20T04:01:44;0.80;;;0.80;;
595;SDS011;19946;49.306;11.350;2023-12-20T04:04:44;0.50;;;0.50;;
595;SDS011;19946;49.306;11.350;2023-12-20T04:07:45;0.63;;;0.63;;
595;SDS011;19946;49.306;11.350;2023-12-20T04:10:45;1.00;;;1.00;;
595;SDS011;19946;49.306;11.350;2023-12-20T04:13:45;1.17;;;1.17;;
595;SDS011;19946;49.306;11.350;2023-12-20T04:16:46;1.20;;;1.20;;
595;SDS011;19946;49.306;11.350;2023-12-20T04:19:46;0.80;;;0.80;;
595;SDS011;19946;49.306;11.350;2023-12-20T04:22:46;0.70;;;0.70;;
595;SDS011;19946;49.306;11.350;2023-12-20T04:25:47;0.90;;;0.90;;
595;SDS011;19946;49.306;11.350;2023-12-20T04:28:47;0.70;;;0.70;;
595;SDS011;19946;49.306;11.350;2023-12-20T04:31:48;0.60;;;0.60;;
595;SDS011;19946;49.306;11.350;2023-12-20T04:34:48;0.53;;;0.53;;
595;SDS011;19946;49.306;11.350;2023-12-20T04:37:48;0.50;;;0.50;;
595;SDS011;19946;49.306;11.350;2023-12-20T04:40:49;0.67;;;0.67;;
595;SDS011;19946;49.306;11.350;2023-12-20T04:43:50;0.40;;;0.40;;
595;SDS011;19946;49.306;11.350;2023-12-20T04:46:50;0.40;;;0.40;;
595;SDS011;19946;49.306;11.350;2023-12-20T04:49:52;0.60;;;0.60;;
595;SDS011;19946;49.306;11.350;2023-12-20T04:52:52;0.70;;;0.70;;
595;SDS011;19946;49.306;11.350;2023-12-20T04:55:53;0.70;;;0.70;;
595;SDS011;19946;49.306;11.350;2023-12-20T04:58:53;0.80;;;0.80;;
595;SDS011;19946;49.306;11.350;2023-12-20T05:01:54;0.60;;;0.60;;
595;SDS011;19946;49.306;11.350;2023-12-20T05:04:55;0.50;;;0.50;;
595;SDS011;19946;49.306;11.350;2023-12-20T05:07:56;0.80;;;0.80;;
595;SDS011;19946;49.306;11.350;2023-12-20T05:10:56;1.00;;;1.00;;
595;SDS011;19946;49.306;11.350;2023-12-20T05:13:57;0.80;;;0.80;;
595;SDS011;19946;49.306;11.350;2023-12-20T05:16:57;0.90;;;0.90;;
595;SDS011;19946;49.306;11.350;2023-12-20T05:19:57;0.80;;;0.80;;
595;SDS011;19946;49.306;11.350;2023-12-20T05:22:58;0.90;;;0.90;;
595;SDS011;19946;49.306;11.350;2023-12-20T05:25:58;0.70;;;0.70;;
595;SDS011;19946;49.306;11.350;2023-12-20T05:28:59;0.90;;;0.90;;
595;SDS011;19946;49.306;11.350;2023-12-20T05:31:59;1.00;;;1.00;;
595;SDS011;19946;49.306;11.350;2023-12-20T05:34:59;1.20;;;1.20;;
595;SDS011;19946;49.306;11.350;2023-12-20T05:38:05;1.30;;;1.30;;
595;SDS011;19946;49.306;11.350;2023-12-20T05:41:25;1.00;;;1.00;;
595;SDS011;19946;49.306;11.350;2023-12-20T05:44:25;1.60;;;1.60;;
595;SDS011;19946;49.306;11.350;2023-12-20T05:47:25;0.10;;;0.10;;
595;SDS011;19946;49.306;11.350;2023-12-20T05:51:07;0.10;;;0.10;;
595;SDS011;19946;49.306;11.350;2023-12-20T05:54:25;0.10;;;0.10;;
595;SDS011;19946;49.306;11.350;2023-12-20T05:57:25;0.10;;;0.10;;
595;SDS011;19946;49.306;11.350;2023-12-20T06:00:26;0.10;;;0.10;;
595;SDS011;19946;49.306;11.350;2023-12-20T06:03:26;0.10;;;0.10;;
595;SDS011;19946;49.306;11.350;2023-12-20T06:06:26;0.17;;;0.17;;
595;SDS011;19946;49.306;11.350;2023-12-20T06:09:27;0.10;;;0.10;;
595;SDS011;19946;49.306;11.350;2023-12-20T06:12:27;0.20;;;0.20;;
595;SDS011;19946;49.306;11.350;2023-12-20T06:15:28;0.23;;;0.23;;
595;SDS011;19946;49.306;11.350;2023-12-20T06:22:41;0.10;;;0.10;;
595;SDS011;19946;49.306;11.350;2023-12-20T06:25:43;0.10;;;0.10;;
595;SDS011;19946;49.306;11.350;2023-12-20T06:29:40;0.20;;;0.20;;
595;SDS011;19946;49.306;11.350;2023-12-20T06:40:40;0.10;;;0.10;;
595;SDS011;19946;49.306;11.350;2023-12-20T06:43:41;0.17;;;0.17;;
595;SDS011;19946;49.306;11.350;2023-12-20T06:46:41;0.10;;;0.10;;
595;SDS011;19946;49.306;11.350;2023-12-20T06:49:41;0.20;;;0.20;;
595;SDS011;19946;49.306;11.350;2023-12-20T06:52:42;0.20;;;0.20;;
595;SDS011;19946;49.306;11.350;2023-12-20T06:55:42;0.10;;;0.10;;
595;SDS011;19946;49.306;11.350;2023-12-20T06:59:45;0.20;;;0.20;;
595;SDS011;19946;49.306;11.350;2023-12-20T07:03:49;0.10;;;0.10;;
595;SDS011;19946;49.306;11.350;2023-12-20T07:06:51;0.10;;;0.10;;
595;SDS011;19946;49.306;11.350;2023-12-20T07:10:55;0.20;;;0.20;;
595;SDS011;19946;49.306;11.350;2023-12-20T07:14:18;0.30;;;0.30;;
595;SDS011;19946;49.306;11.350;2023-12-20T07:17:18;0.30;;;0.30;;
595;SDS011;19946;49.306;11.350;2023-12-20T07:20:19;0.20;;;0.20;;
595;SDS011;19946;49.306;11.350;2023-12-20T07:23:19;0.30;;;0.30;;
595;SDS011;19946;49.306;11.350;2023-12-20T07:26:20;0.20;;;0.20;;
595;SDS011;19946;49.306;11.350;2023-12-20T07:29:21;0.27;;;0.27;;
595;SDS011;19946;49.306;11.350;2023-12-20T07:32:21;0.37;;;0.37;;
595;SDS011;19946;49.306;11.350;2023-12-20T07:35:22;0.40;;;0.40;;
595;SDS011;19946;49.306;11.350;2023-12-20T07:38:23;0.40;;;0.40;;
595;SDS011;19946;49.306;11.350;2023-12-20T07:41:24;0.40;;;0.40;;
595;SDS011;19946;49.306;11.350;2023-12-20T07:44:24;0.53;;;0.53;;
595;SDS011;19946;49.306;11.350;2023-12-20T07:47:24;0.60;;;0.60;;
595;SDS011;19946;49.306;11.350;2023-12-20T07:50:25;0.57;;;0.57;;
595;SDS011;19946;49.306;11.350;2023-12-20T07:53:26;0.57;;;0.57;;
595;SDS011;19946;49.306;11.350;2023-12-20T07:56:27;0.60;;;0.60;;
595;SDS011;19946;49.306;11.350;2023-12-20T07:59:28;0.50;;;0.50;;
595;SDS011;19946;49.306;11.350;2023-12-20T08:02:28;0.60;;;0.60;;
595;SDS011;19946;49.306;11.350;2023-12-20T08:05:28;0.50;;;0.50;;
595;SDS011;19946;49.306;11.350;2023-12-20T08:08:28;0.60;;;0.60;;
595;SDS011;19946;49.306;11.350;2023-12-20T08:11:29;0.60;;;0.60;;
595;SDS011;19946;49.306;11.350;2023-12-20T08:14:29;0.60;;;0.60;;
595;SDS011;19946;49.306;11.350;2023-12-20T08:17:30;0.50;;;0.50;;
595;SDS011;19946;49.306;11.350;2023-12-20T08:20:30;0.70;;;0.70;;
595;SDS011;19946;49.306;11.350;2023-12-20T08:23:31;0.60;;;0.60;;
595;SDS011;19946;49.306;11.350;2023-12-20T08:26:32;0.60;;;0.60;;
595;SDS011;19946;49.306;11.350;2023-12-20T08:29:33;0.60;;;0.60;;
595;SDS011;19946;49.306;11.350;2023-12-20T08:32:33;0.70;;;0.70;;
595;SDS011;19946;49.306;11.350;2023-12-20T08:35:34;0.60;;;0.60;;
595;SDS011;19946;49.306;11.350;2023-12-20T08:38:35;0.60;;;0.60;;
595;SDS011;19946;49.306;11.350;2023-12-20T08:41:36;0.60;;;0.60;;
595;SDS011;19946;49.306;11.350;2023-12-20T08:44:37;0.70;;;0.70;;
595;SDS011;19946;49.306;11.350;2023-12-20T08:47:37;0.70;;;0.70;;
595;SDS011;19946;49.306;11.350;2023-12-20T08:50:38;1.00;;;1.00;;
595;SDS011;19946;49.306;11.350;2023-12-20T08:53:38;1.00;;;1.00;;
595;SDS011;19946;49.306;11.350;2023-12-20T08:56:39;1.10;;;1.10;;
595;SDS011;19946;49.306;11.350;2023-12-20T08:59:39;1.60;;;1.60;;
595;SDS011;19946;49.306;11.350;2023-12-20T09:02:41;1.30;;;1.30;;
595;SDS011;19946;49.306;11.350;2023-12-20T09:05:41;1.60;;;1.60;;
595;SDS011;19946;49.306;11.350;2023-12-20T09:08:41;1.70;;;1.70;;
595;SDS011;19946;49.306;11.350;2023-12-20T09:11:42;1.37;;;1.37;;
595;SDS011;19946;49.306;11.350;2023-12-20T09:14:42;1.30;;;1.30;;
595;SDS011;19946;49.306;11.350;2023-12-20T09:17:42;1.60;;;1.60;;
595;SDS011;19946;49.306;11.350;2023-12-20T09:20:43;1.43;;;1.43;;
595;SDS011;19946;49.306;11.350;2023-12-20T09:23:44;2.20;;;2.20;;
595;SDS011;19946;49.306;11.350;2023-12-20T09:26:45;2.97;;;2.83;;
595;SDS011;19946;49.306;11.350;2023-12-20T09:29:45;3.07;;;2.97;;
595;SDS011;19946;49.306;11.350;2023-12-20T09:32:45;3.77;;;3.77;;
595;SDS011;19946;49.306;11.350;2023-12-20T09:35:45;2.50;;;2.50;;
595;SDS011;19946;49.306;11.350;2023-12-20T09:38:46;2.10;;;2.10;;
595;SDS011;19946;49.306;11.350;2023-12-20T09:41:49;2.00;;;2.00;;
595;SDS011;19946;49.306;11.350;2023-12-20T09:44:59;2.90;;;2.90;;
595;SDS011;19946;49.306;11.350;2023-12-20T09:48:03;2.07;;;2.07;;
595;SDS011;19946;49.306;11.350;2023-12-20T09:51:04;2.13;;;2.13;;
595;SDS011;19946;49.306;11.350;2023-12-20T09:54:05;2.50;;;2.50;;
595;SDS011;19946;49.306;11.350;2023-12-20T09:57:05;2.20;;;2.20;;
595;SDS011;19946;49.306;11.350;2023-12-20T10:00:06;3.37;;;3.37;;
595;SDS011;19946;49.306;11.350;2023-12-20T10:03:12;3.47;;;3.47;;
595;SDS011;19946;49.306;11.350;2023-12-20T10:06:14;4.30;;;4.30;;
595;SDS011;19946;49.306;11.350;2023-12-20T10:09:15;5.13;;;5.13;;
595;SDS011;19946;49.306;11.350;2023-12-20T10:12:15;4.90;;;4.90;;
595;SDS011;19946;49.306;11.350;2023-12-20T10:15:15;5.80;;;5.70;;
595;SDS011;19946;49.306;11.350;2023-12-20T10:18:16;6.10;;;6.00;;
595;SDS011;19946;49.306;11.350;2023-12-20T10:21:16;5.87;;;5.77;;
595;SDS011;19946;49.306;11.350;2023-12-20T10:24:17;8.30;;;8.10;;
595;SDS011;19946;49.306;11.350;2023-12-20T10:27:18;6.90;;;6.70;;
595;SDS011;19946;49.306;11.350;2023-12-20T10:30:19;7.10;;;6.90;;
595;SDS011;19946;49.306;11.350;2023-12-20T10:33:27;5.57;;;5.37;;
595;SDS011;19946;49.306;11.350;2023-12-20T10:36:32;6.50;;;6.30;;
595;SDS011;19946;49.306;11.350;2023-12-20T10:39:33;7.00;;;6.70;;
595;SDS011;19946;49.306;11.350;2023-12-20T10:42:33;7.40;;;7.10;;
595;SDS011;19946;49.306;11.350;2023-12-20T10:45:36;7.47;;;7.27;;
595;SDS011;19946;49.306;11.350;2023-12-20T10:48:36;4.57;;;4.47;;
595;SDS011;19946;49.306;11.350;2023-12-20T10:51:39;4.50;;;4.40;;
595;SDS011;19946;49.306;11.350;2023-12-20T10:54:40;4.17;;;4.13;;
595;SDS011;19946;49.306;11.350;2023-12-20T10:57:41;4.07;;;3.97;;
595;SDS011;19946;49.306;11.350;2023-12-20T11:00:42;4.47;;;4.37;;
595;SDS011;19946;49.306;11.350;2023-12-20T11:03:49;5.40;;;5.30;;
595;SDS011;19946;49.306;11.350;2023-12-20T11:06:52;5.70;;;5.60;;
595;SDS011;19946;49.306;11.350;2023-12-20T11:10:21;4.77;;;4.67;;
595;SDS011;19946;49.306;11.350;2023-12-20T11:17:14;4.80;;;4.70;;
595;SDS011;19946;49.306;11.350;2023-12-20T11:20:22;3.90;;;3.80;;
595;SDS011;19946;49.306;11.350;2023-12-20T11:23:48;4.30;;;4.20;;
595;SDS011;19946;49.306;11.350;2023-12-20T11:26:49;6.20;;;6.00;;
595;SDS011;19946;49.306;11.350;2023-12-20T11:29:55;4.27;;;4.23;;
595;SDS011;19946;49.306;11.350;2023-12-20T11:32:57;3.90;;;3.80;;
595;SDS011;19946;49.306;11.350;2023-12-20T11:35:57;4.40;;;4.30;;
595;SDS011;19946;49.306;11.350;2023-12-20T11:38:59;6.00;;;5.90;;
595;SDS011;19946;49.306;11.350;2023-12-20T11:42:04;5.43;;;5.33;;
595;SDS011;19946;49.306;11.350;2023-12-20T11:45:08;4.90;;;4.80;;
595;SDS011;19946;49.306;11.350;2023-12-20T11:48:09;5.77;;;5.67;;
595;SDS011;19946;49.306;11.350;2023-12-20T11:51:10;5.40;;;5.30;;
595;SDS011;19946;49.306;11.350;2023-12-20T11:54:11;5.97;;;5.87;;
595;SDS011;19946;49.306;11.350;2023-12-20T11:57:15;4.60;;;4.60;;
595;SDS011;19946;49.306;11.350;2023-12-20T12:00:21;3.77;;;3.67;;
595;SDS011;19946;49.306;11.350;2023-12-20T12:03:40;3.60;;;3.60;;
595;SDS011;19946;49.306;11.350;2023-12-20T12:06:43;4.57;;;4.57;;
595;SDS011;19946;49.306;11.350;2023-12-20T12:09:45;4.90;;;4.80;;
595;SDS011;19946;49.306;11.350;2023-12-20T12:12:46;4.33;;;4.23;;
595;SDS011;19946;49.306;11.350;2023-12-20T12:15:47;5.57;;;5.47;;
595;SDS011;19946;49.306;11.350;2023-12-20T12:18:55;5.60;;;5.40;;
595;SDS011;19946;49.306;11.350;2023-12-20T12:22:12;4.50;;;4.30;;
595;SDS011;19946;49.306;11.350;2023-12-20T12:25:26;2.97;;;2.97;;
595;SDS011;19946;49.306;11.350;2023-12-20T12:28:29;2.57;;;2.57;;
595;SDS011;19946;49.306;11.350;2023-12-20T12:31:56;3.57;;;3.57;;
595;SDS011;19946;49.306;11.350;2023-12-20T12:35:10;2.60;;;2.60;;
595;SDS011;19946;49.306;11.350;2023-12-20T12:38:11;4.13;;;4.03;;
595;SDS011;19946;49.306;11.350;2023-12-20T12:41:12;4.03;;;4.00;;
595;SDS011;19946;49.306;11.350;2023-12-20T12:44:13;3.70;;;3.70;;
595;SDS011;19946;49.306;11.350;2023-12-20T12:47:14;2.80;;;2.70;;
595;SDS011;19946;49.306;11.350;2023-12-20T12:50:35;2.97;;;2.97;;
595;SDS011;19946;49.306;11.350;2023-12-20T12:53:35;3.47;;;3.47;;
595;SDS011;19946;49.306;11.350;2023-12-20T12:56:50;2.00;;;2.00;;
595;SDS011;19946;49.306;11.350;2023-12-20T13:01:13;2.77;;;2.77;;
595;SDS011;19946;49.306;11.350;2023-12-20T13:04:14;3.60;;;3.60;;
595;SDS011;19946;49.306;11.350;2023-12-20T13:07:14;3.00;;;3.00;;
595;SDS011;19946;49.306;11.350;2023-12-20T13:10:15;3.20;;;3.10;;
595;SDS011;19946;49.306;11.350;2023-12-20T13:13:37;2.97;;;2.97;;
595;SDS011;19946;49.306;11.350;2023-12-20T13:16:38;3.93;;;3.87;;
595;SDS011;19946;49.306;11.350;2023-12-20T13:19:38;3.70;;;3.70;;
595;SDS011;19946;49.306;11.350;2023-12-20T13:22:38;2.90;;;2.90;;
595;SDS011;19946;49.306;11.350;2023-12-20T13:33:02;3.77;;;3.77;;
595;SDS011;19946;49.306;11.350;2023-12-20T13:36:03;3.17;;;3.17;;
595;SDS011;19946;49.306;11.350;2023-12-20T13:39:04;3.83;;;3.83;;
595;SDS011;19946;49.306;11.350;2023-12-20T13:42:05;3.17;;;3.17;;
595;SDS011;19946;49.306;11.350;2023-12-20T13:45:10;3.60;;;3.50;;
595;SDS011;19946;49.306;11.350;2023-12-20T13:48:14;3.80;;;3.80;;
595;SDS011;19946;49.306;11.350;2023-12-20T13:51:14;3.47;;;3.47;;
595;SDS011;19946;49.306;11.350;2023-12-20T13:54:15;3.43;;;3.43;;
595;SDS011;19946;49.306;11.350;2023-12-20T13:57:16;3.60;;;3.60;;
595;SDS011;19946;49.306;11.350;2023-12-20T14:00:17;2.50;;;2.50;;
595;SDS011;19946;49.306;11.350;2023-12-20T14:04:06;2.40;;;2.40;;
595;SDS011;19946;49.306;11.350;2023-12-20T14:20:47;1.23;;;1.23;;
595;SDS011;19946;49.306;11.350;2023-12-20T14:25:06;1.47;;;1.47;;
595;SDS011;19946;49.306;11.350;2023-12-20T14:29:10;1.90;;;1.90;;
595;SDS011;19946;49.306;11.350;2023-12-20T14:32:11;1.67;;;1.67;;
595;SDS011;19946;49.306;11.350;2023-12-20T14:36:14;1.70;;;1.70;;
595;SDS011;19946;49.306;11.350;2023-12-20T14:39:17;2.20;;;2.20;;
595;SDS011;19946;49.306;11.350;2023-12-20T14:42:18;2.40;;;2.40;;
595;SDS011;19946;49.306;11.350;2023-12-20T14:45:20;2.23;;;2.23;;
595;SDS011;19946;49.306;11.350;2023-12-20T14:48:38;1.53;;;1.53;;
595;SDS011;19946;49.306;11.350;2023-12-20T14:52:05;1.00;;;1.00;;
595;SDS011;19946;49.306;11.350;2023-12-20T14:55:07;2.20;;;2.10;;
595;SDS011;19946;49.306;11.350;2023-12-20T14:58:08;1.33;;;1.33;;
595;SDS011;19946;49.306;11.350;2023-12-20T15:10:22;1.30;;;1.30;;
595;SDS011;19946;49.306;11.350;2023-12-20T15:13:22;1.90;;;1.90;;
595;SDS011;19946;49.306;11.350;2023-12-20T15:16:32;1.80;;;1.80;;
595;SDS011;19946;49.306;11.350;2023-12-20T15:20:47;2.20;;;2.20;;
595;SDS011;19946;49.306;11.350;2023-12-20T15:23:48;2.30;;;2.30;;
595;SDS011;19946;49.306;11.350;2023-12-20T15:27:30;1.60;;;1.60;;
595;SDS011;19946;49.306;11.350;2023-12-20T15:53:09;5.53;;;2.40;;
595;SDS011;19946;49.306;11.350;2023-12-20T16:55:26;2.00;;;2.00;;
595;SDS011;19946;49.306;11.350;2023-12-20T17:26:53;1.10;;;1.10;;
595;SDS011;19946;49.306;11.350;2023-12-20T17:31:05;2.20;;;2.20;;
595;SDS011;19946;49.306;11.350;2023-12-20T17:34:06;2.37;;;2.37;;
595;SDS011;19946;49.306;11.350;2023-12-20T17:37:09;2.30;;;2.30;;
595;SDS011;19946;49.306;11.350;2023-12-20T17:44:40;1.90;;;1.90;;
595;SDS011;19946;49.306;11.350;2023-12-20T17:55:02;1.20;;;1.20;;
595;SDS011;19946;49.306;11.350;2023-12-20T18:12:17;1.87;;;1.77;;
595;SDS011;19946;49.306;11.350;2023-12-20T18:49:04;5.87;;;2.33;;
595;SDS011;19946;49.306;11.350;2023-12-20T19:15:26;2.10;;;1.20;;
595;SDS011;19946;49.306;11.350;2023-12-20T19:19:42;1.10;;;1.10;;
595;SDS011;19946;49.306;11.350;2023-12-20T21:27:16;0.60;;;0.60;;
595;SDS011;19946;49.306;11.350;2023-12-20T21:42:24;1.33;;;0.90;;
595;SDS011;19946;49.306;11.350;2023-12-20T22:25:13;0.60;;;0.60;;
595;SDS011;19946;49.306;11.350;2023-12-20T22:56:02;4.03;;;1.83;;
595;SDS011;19946;49.306;11.350;2023-12-20T23:07:09;0.97;;;0.97;;
